Savannah Hilton Head International Airport Savannah US
ICAO: KSAV
IATA: SAV
Category: Large
Scheduled Services: Yes

Elevation: 50 ft
TransAlt. 18000 ft.

Airport Communications:
APP/DEP:118.4
ATIS:123.75
CLNC DEL:119.55
CTAF:119.1
GND:121.9
ANDERSON RDO:112.7
CRTC OPS:23.7
165 AW COMD POST:22.575
MACON RDO:123.65
TWR:119.1
UNICOM:122.95

KSAV Zoom In..

If you have problems with the map follow the link
https://www.worldairports.se/pages/airport.php?
ICAO=KSAV

Runways:

(A) RW 01 length 7002 ft width 150 ft
ILS 111.90 / hdg 6

(B) RW 10 length 9351 ft width 150 ft
ILS 109.90 / hdg 97

(C) RW 19 length 7002 ft width 150 ft
---- / hdg 186

(D) RW 28 length 9351 ft width 150 ft
---- / hdg 277

Location; KSAV
Day. 25 / Time. 22.53 Zulu
* Altimeter: 30.02
* Temperature: 13° c. 55.4°f.
* Wind from: 270° Speed 08 kn.
Dewpoint: 02° c.
Visibility: 10 Statute Miles.
Clouds: Few 25000 ft.

KSAV 252253Z 27008KT 10SM FEW250 13/02 A3002 RMK AO2 SLP166 T01280022


Wind From 270°
Speed 08 kn.

 
 
jpsmedia worldairports.se 2020   terms of use